createdAt,value
2022-10-01T00:00:14.802Z,995.67
2022-10-01T00:01:14.882Z,995.65
2022-10-01T00:02:14.782Z,995.66
2022-10-01T00:03:14.874Z,995.59
2022-10-01T00:04:14.753Z,995.56
2022-10-01T00:05:14.749Z,995.60
2022-10-01T00:06:14.733Z,995.64
2022-10-01T00:07:14.711Z,995.59
2022-10-01T00:08:14.711Z,995.53
2022-10-01T00:09:14.682Z,995.53
2022-10-01T00:10:14.681Z,995.53
2022-10-01T00:11:14.662Z,995.49
2022-10-01T00:12:14.651Z,995.47
2022-10-01T00:13:14.650Z,995.44
2022-10-01T00:14:14.623Z,995.42
2022-10-01T00:15:14.609Z,995.41
2022-10-01T00:16:14.673Z,995.42
2022-10-01T00:17:14.592Z,995.45
2022-10-01T00:18:14.590Z,995.38
2022-10-01T00:19:14.561Z,995.36
2022-10-01T00:20:14.891Z,995.32
2022-10-01T00:21:14.557Z,995.34
2022-10-01T00:22:14.532Z,995.32
2022-10-01T00:23:14.524Z,995.29
2022-10-01T00:24:14.501Z,995.26
2022-10-01T00:25:14.487Z,995.24
2022-10-01T00:26:14.477Z,995.21
2022-10-01T00:27:14.465Z,995.20
2022-10-01T00:28:14.520Z,995.15
2022-10-01T00:29:14.423Z,995.17
2022-10-01T00:30:14.422Z,995.13
2022-10-01T00:31:14.514Z,995.07
2022-10-01T00:32:14.401Z,995.08
2022-10-01T00:33:14.392Z,995.08
2022-10-01T00:34:14.370Z,995.09
2022-10-01T00:35:14.350Z,995.04
2022-10-01T00:36:14.343Z,995.05
2022-10-01T00:37:14.333Z,995.05
2022-10-01T00:38:14.332Z,995.03
2022-10-01T00:39:14.301Z,995.05
2022-10-01T00:40:14.292Z,995.08
2022-10-01T00:41:14.302Z,995.09
2022-10-01T00:42:14.263Z,995.11
2022-10-01T00:43:14.262Z,995.05
2022-10-01T00:44:14.240Z,995.02
2022-10-01T00:45:14.224Z,995.04
2022-10-01T00:46:14.269Z,995.03
2022-10-01T00:47:14.192Z,995.00
2022-10-01T00:48:14.202Z,995.02
2022-10-01T00:49:14.171Z,995.04
2022-10-01T00:50:14.162Z,995.01
2022-10-01T00:51:14.142Z,994.97
2022-10-01T00:52:14.139Z,994.99
2022-10-01T00:53:14.143Z,994.99
2022-10-01T00:54:14.124Z,994.98
2022-10-01T00:55:14.093Z,994.97
2022-10-01T00:56:14.092Z,994.94
2022-10-01T00:57:14.064Z,994.90
2022-10-01T00:58:14.077Z,994.90
2022-10-01T00:59:14.041Z,994.84
2022-10-01T01:00:14.032Z,994.84
2022-10-01T01:01:14.047Z,994.83
2022-10-01T01:02:14.054Z,994.78
2022-10-01T01:03:14.002Z,994.78
2022-10-01T01:04:13.983Z,994.81
2022-10-01T01:05:13.978Z,994.82
2022-10-01T01:06:14.000Z,994.79
2022-10-01T01:07:13.942Z,994.79
2022-10-01T01:08:13.952Z,994.79
2022-10-01T01:09:13.913Z,994.80
2022-10-01T01:10:13.902Z,994.74
2022-10-01T01:11:13.891Z,994.81
2022-10-01T01:12:13.880Z,994.79
2022-10-01T01:13:13.892Z,994.77
2022-10-01T01:14:13.859Z,994.77
2022-10-01T01:15:13.831Z,994.78
2022-10-01T01:16:13.905Z,994.70
2022-10-01T01:17:13.811Z,994.67
2022-10-01T01:18:13.801Z,994.67
2022-10-01T01:19:13.804Z,994.63
2022-10-01T01:20:13.771Z,994.68
2022-10-01T01:21:13.771Z,994.71
2022-10-01T01:22:13.751Z,994.73
2022-10-01T01:23:13.741Z,994.67
2022-10-01T01:24:13.761Z,994.66
2022-10-01T01:25:13.706Z,994.60
2022-10-01T01:26:13.710Z,994.61
2022-10-01T01:27:13.694Z,994.68
2022-10-01T01:28:13.740Z,994.64
2022-10-01T01:29:13.674Z,994.63
2022-10-01T01:30:13.641Z,994.63
2022-10-01T01:31:13.676Z,994.60
2022-10-01T01:32:14.904Z,994.60
2022-10-01T01:33:13.611Z,994.59
2022-10-01T01:34:13.621Z,994.60
2022-10-01T01:35:13.583Z,994.55
2022-10-01T01:36:13.582Z,994.54
2022-10-01T01:37:13.570Z,994.54
2022-10-01T01:38:13.549Z,994.52
2022-10-01T01:39:13.543Z,994.47
2022-10-01T01:40:13.525Z,994.45
2022-10-01T01:41:13.502Z,994.48
2022-10-01T01:42:13.491Z,994.43
2022-10-01T01:43:13.472Z,994.42
2022-10-01T01:44:13.481Z,994.42
2022-10-01T01:45:13.452Z,994.38
2022-10-01T01:46:13.480Z,994.39
2022-10-01T01:47:13.452Z,994.33
2022-10-01T01:48:13.419Z,994.37
2022-10-01T01:49:13.411Z,994.34
2022-10-01T01:50:13.390Z,994.32
2022-10-01T01:51:13.372Z,994.31
2022-10-01T01:52:13.364Z,994.32
2022-10-01T01:53:13.349Z,994.37
2022-10-01T01:54:13.352Z,994.32
2022-10-01T01:55:13.322Z,994.32
2022-10-01T01:56:13.312Z,994.31
2022-10-01T01:57:13.295Z,994.28
2022-10-01T01:58:14.232Z,994.24
2022-10-01T01:59:13.283Z,994.23
2022-10-01T02:00:13.260Z,994.22
2022-10-01T02:01:13.269Z,994.21
2022-10-01T02:02:13.357Z,994.18
2022-10-01T02:03:13.232Z,994.13
2022-10-01T02:04:13.222Z,994.15
2022-10-01T02:05:13.211Z,994.12
2022-10-01T02:06:13.184Z,994.12
2022-10-01T02:07:13.171Z,994.17
2022-10-01T02:08:13.161Z,994.18
2022-10-01T02:09:13.182Z,994.19
2022-10-01T02:10:13.192Z,994.14
2022-10-01T02:11:13.111Z,994.16
2022-10-01T02:12:13.101Z,994.17
2022-10-01T02:13:13.081Z,994.22
2022-10-01T02:14:13.099Z,994.20
2022-10-01T02:15:13.071Z,994.21
2022-10-01T02:16:13.129Z,994.23
2022-10-01T02:17:13.031Z,994.24
2022-10-01T02:18:13.039Z,994.22
2022-10-01T02:19:13.031Z,994.22
2022-10-01T02:20:13.002Z,994.20
2022-10-01T02:21:12.982Z,994.18
2022-10-01T02:22:12.980Z,994.16
2022-10-01T02:23:12.963Z,994.18
2022-10-01T02:24:12.962Z,994.16
2022-10-01T02:25:12.943Z,994.17
2022-10-01T02:26:12.931Z,994.14
2022-10-01T02:27:12.911Z,994.15
2022-10-01T02:28:12.947Z,994.10
2022-10-01T02:29:12.902Z,994.13
2022-10-01T02:30:12.889Z,994.11
2022-10-01T02:31:12.882Z,994.11
2022-10-01T02:32:12.851Z,994.09
2022-10-01T02:33:12.841Z,994.11
2022-10-01T02:34:13.121Z,994.13
2022-10-01T02:35:12.821Z,994.11
2022-10-01T02:36:12.792Z,994.12
2022-10-01T02:37:12.791Z,994.09
2022-10-01T02:38:12.783Z,994.06
2022-10-01T02:39:12.759Z,994.06
2022-10-01T02:40:12.762Z,994.02
2022-10-01T02:41:12.730Z,994.06
2022-10-01T02:42:12.719Z,994.07
2022-10-01T02:43:12.701Z,994.05
2022-10-01T02:44:12.700Z,994.07
2022-10-01T02:45:12.691Z,994.06
2022-10-01T02:46:12.693Z,994.06
2022-10-01T02:47:12.652Z,994.04
2022-10-01T02:48:12.643Z,994.03
2022-10-01T02:49:12.629Z,994.06
2022-10-01T02:50:12.639Z,994.03
2022-10-01T02:51:12.613Z,994.05
2022-10-01T02:52:12.592Z,994.04
2022-10-01T02:53:12.573Z,994.00
2022-10-01T02:54:12.561Z,993.94
2022-10-01T02:55:12.565Z,993.97
2022-10-01T02:56:12.541Z,993.95
2022-10-01T02:57:12.530Z,993.95
2022-10-01T02:58:12.501Z,993.95
2022-10-01T02:59:12.514Z,993.91
2022-10-01T03:00:12.492Z,993.89
2022-10-01T03:01:12.501Z,993.90
2022-10-01T03:02:12.696Z,993.87
2022-10-01T03:03:12.441Z,993.80
2022-10-01T03:04:12.429Z,993.79
2022-10-01T03:05:12.432Z,993.79
2022-10-01T03:06:12.402Z,993.74
2022-10-01T03:07:12.397Z,993.74
2022-10-01T03:08:12.371Z,993.75
2022-10-01T03:09:12.370Z,993.70
2022-10-01T03:10:12.363Z,993.72
2022-10-01T03:11:12.360Z,993.71
2022-10-01T03:12:12.341Z,993.67
2022-10-01T03:13:12.312Z,993.70
2022-10-01T03:14:12.300Z,993.68
2022-10-01T03:15:12.291Z,993.69
2022-10-01T03:16:12.312Z,993.68
2022-10-01T03:17:12.266Z,993.67
2022-10-01T03:18:12.260Z,993.64
2022-10-01T03:19:12.239Z,993.59
2022-10-01T03:20:12.221Z,993.59
2022-10-01T03:21:12.222Z,993.57
2022-10-01T03:22:12.202Z,993.57
2022-10-01T03:23:12.205Z,993.56
2022-10-01T03:24:12.181Z,993.57
2022-10-01T03:25:12.208Z,993.51
2022-10-01T03:26:12.182Z,993.58
2022-10-01T03:27:12.142Z,993.53
2022-10-01T03:28:12.215Z,993.57
2022-10-01T03:29:12.113Z,993.52
2022-10-01T03:30:12.094Z,993.51
2022-10-01T03:31:12.111Z,993.52
2022-10-01T03:32:12.063Z,993.49
2022-10-01T03:33:12.072Z,993.52
2022-10-01T03:34:12.042Z,993.52
2022-10-01T03:35:12.032Z,993.53
2022-10-01T03:36:12.024Z,993.51
2022-10-01T03:37:12.001Z,993.48
2022-10-01T03:38:12.003Z,993.49
2022-10-01T03:39:11.982Z,993.50
2022-10-01T03:40:11.962Z,993.44
2022-10-01T03:41:11.952Z,993.40
2022-10-01T03:42:11.976Z,993.45
2022-10-01T03:43:11.932Z,993.47
2022-10-01T03:44:11.912Z,993.44
2022-10-01T03:45:11.900Z,993.39
2022-10-01T03:46:11.967Z,993.36
2022-10-01T03:47:11.901Z,993.32
2022-10-01T03:48:11.861Z,993.32
2022-10-01T03:49:11.853Z,993.32
2022-10-01T03:50:11.848Z,993.29
2022-10-01T03:51:13.191Z,993.30
2022-10-01T03:52:11.822Z,993.28
2022-10-01T03:53:11.800Z,993.29
2022-10-01T03:54:11.782Z,993.23
2022-10-01T03:55:11.779Z,993.25
2022-10-01T03:56:11.763Z,993.21
2022-10-01T03:57:11.763Z,993.15
2022-10-01T03:58:11.730Z,993.14
2022-10-01T03:59:11.732Z,993.11
2022-10-01T04:00:11.703Z,993.12
2022-10-01T04:01:11.703Z,993.11
2022-10-01T04:02:11.779Z,993.11
2022-10-01T04:03:11.768Z,993.11
2022-10-01T04:04:11.653Z,993.13
2022-10-01T04:05:11.642Z,993.15
2022-10-01T04:06:11.622Z,993.09
2022-10-01T04:07:11.632Z,993.06
2022-10-01T04:08:11.599Z,993.07
2022-10-01T04:09:11.595Z,993.07
2022-10-01T04:10:11.572Z,993.01
2022-10-01T04:11:11.570Z,993.01
2022-10-01T04:12:11.564Z,992.93
2022-10-01T04:13:11.539Z,992.95
2022-10-01T04:14:11.524Z,992.98
2022-10-01T04:15:11.511Z,992.93
2022-10-01T04:16:11.564Z,992.96
2022-10-01T04:17:11.502Z,992.94
2022-10-01T04:18:11.478Z,992.92
2022-10-01T04:19:11.462Z,992.91
2022-10-01T04:20:11.442Z,992.86
2022-10-01T04:21:11.433Z,992.83
2022-10-01T04:22:11.432Z,992.82
2022-10-01T04:23:11.414Z,992.83
2022-10-01T04:24:11.392Z,992.79
2022-10-01T04:25:11.393Z,992.76
2022-10-01T04:26:11.363Z,992.78
2022-10-01T04:27:11.376Z,992.74
2022-10-01T04:28:11.403Z,992.73
2022-10-01T04:29:11.334Z,992.74
2022-10-01T04:30:11.313Z,992.74
2022-10-01T04:31:11.366Z,992.73
2022-10-01T04:32:11.291Z,992.73
2022-10-01T04:33:11.293Z,992.74
2022-10-01T04:34:11.263Z,992.74
2022-10-01T04:35:11.254Z,992.78
2022-10-01T04:36:11.233Z,992.73
2022-10-01T04:37:11.233Z,992.75
2022-10-01T04:38:11.224Z,992.73
2022-10-01T04:39:11.203Z,992.79
2022-10-01T04:40:11.183Z,992.84
2022-10-01T04:41:11.203Z,992.87
2022-10-01T04:42:11.161Z,992.94
2022-10-01T04:43:11.169Z,992.93
2022-10-01T04:44:11.132Z,992.96
2022-10-01T04:45:11.130Z,992.98
2022-10-01T04:46:11.103Z,992.98
2022-10-01T04:47:11.102Z,992.96
2022-10-01T04:48:11.093Z,992.90
2022-10-01T04:49:11.073Z,992.88
2022-10-01T04:50:11.056Z,992.86
2022-10-01T04:51:11.046Z,992.83
2022-10-01T04:52:11.030Z,992.78
2022-10-01T04:53:11.033Z,992.83
2022-10-01T04:54:11.000Z,992.80
2022-10-01T04:55:10.992Z,992.78
2022-10-01T04:56:10.972Z,992.75
2022-10-01T04:57:10.966Z,992.72
2022-10-01T04:58:10.962Z,992.75
2022-10-01T04:59:10.940Z,992.78
2022-10-01T05:00:10.922Z,992.77
2022-10-01T05:01:10.947Z,992.75
2022-10-01T05:02:10.935Z,992.69
2022-10-01T05:03:10.922Z,992.67
2022-10-01T05:04:10.863Z,992.68
2022-10-01T05:05:10.857Z,992.64
2022-10-01T05:06:10.833Z,992.60
2022-10-01T05:07:10.832Z,992.64
2022-10-01T05:08:10.825Z,992.63
2022-10-01T05:09:10.805Z,992.61
2022-10-01T05:10:10.819Z,992.60
2022-10-01T05:11:10.790Z,992.50
2022-10-01T05:12:10.762Z,992.47
2022-10-01T05:13:10.795Z,992.47
2022-10-01T05:14:10.734Z,992.47
2022-10-01T05:15:10.725Z,992.46
2022-10-01T05:16:10.730Z,992.41
2022-10-01T05:17:10.694Z,992.42
2022-10-01T05:18:10.690Z,992.43
2022-10-01T05:19:10.673Z,992.37
2022-10-01T05:20:10.665Z,992.27
2022-10-01T05:21:10.641Z,992.29
2022-10-01T05:22:10.626Z,992.25
2022-10-01T05:23:10.630Z,992.27
2022-10-01T05:24:10.595Z,992.28
2022-10-01T05:25:10.586Z,992.38
2022-10-01T05:26:10.563Z,992.34
2022-10-01T05:27:10.555Z,992.36
2022-10-01T05:28:10.601Z,992.36
2022-10-01T05:29:10.532Z,992.37
2022-10-01T05:30:10.514Z,992.36
2022-10-01T05:31:10.561Z,992.37
2022-10-01T05:32:10.484Z,992.38
2022-10-01T05:33:10.493Z,992.34
2022-10-01T05:34:10.463Z,992.35
2022-10-01T05:35:10.489Z,992.47
2022-10-01T05:36:10.423Z,992.51
2022-10-01T05:37:10.419Z,992.58
2022-10-01T05:38:10.419Z,992.62
2022-10-01T05:39:10.393Z,992.62
2022-10-01T05:40:10.374Z,992.57
2022-10-01T05:41:10.372Z,992.52
2022-10-01T05:42:10.352Z,992.51
2022-10-01T05:43:10.353Z,992.45
2022-10-01T05:44:10.322Z,992.43
2022-10-01T05:45:10.313Z,992.44
2022-10-01T05:46:10.405Z,992.51
2022-10-01T05:47:10.292Z,992.47
2022-10-01T05:48:10.283Z,992.51
2022-10-01T05:49:10.263Z,992.62
2022-10-01T05:50:10.244Z,992.62
2022-10-01T05:51:10.243Z,992.65
2022-10-01T05:52:10.224Z,992.63
2022-10-01T05:53:10.234Z,992.61
2022-10-01T05:54:10.194Z,992.60
2022-10-01T05:55:10.394Z,992.58
2022-10-01T05:56:10.207Z,992.60
2022-10-01T05:57:10.165Z,992.46
2022-10-01T05:58:10.145Z,992.45
2022-10-01T05:59:10.155Z,992.49
2022-10-01T06:00:10.115Z,992.37
2022-10-01T06:01:10.113Z,992.31
2022-10-01T06:02:10.215Z,992.28
2022-10-01T06:03:10.151Z,992.35
2022-10-01T06:04:10.075Z,992.31
2022-10-01T06:05:10.054Z,992.34
2022-10-01T06:06:10.036Z,992.25
2022-10-01T06:07:10.023Z,992.18
2022-10-01T06:08:10.010Z,992.08
2022-10-01T06:09:10.023Z,991.98
2022-10-01T06:10:09.982Z,991.99
2022-10-01T06:11:10.045Z,991.97
2022-10-01T06:12:09.963Z,992.04
2022-10-01T06:13:09.971Z,992.01
2022-10-01T06:14:09.929Z,991.98
2022-10-01T06:15:09.921Z,992.04
2022-10-01T06:16:09.921Z,992.13
2022-10-01T06:17:09.894Z,992.19
2022-10-01T06:18:09.873Z,992.15
2022-10-01T06:19:09.890Z,992.08
2022-10-01T06:20:09.844Z,992.11
2022-10-01T06:21:09.835Z,992.06
2022-10-01T06:22:09.824Z,992.09
2022-10-01T06:23:09.820Z,992.06
2022-10-01T06:24:09.811Z,992.02
2022-10-01T06:25:09.793Z,991.96
2022-10-01T06:26:09.774Z,991.91
2022-10-01T06:27:09.764Z,991.97
2022-10-01T06:28:09.836Z,991.97
2022-10-01T06:29:09.736Z,991.93
2022-10-01T06:30:09.717Z,991.93
2022-10-01T06:31:09.738Z,991.92
2022-10-01T06:32:09.711Z,991.97
2022-10-01T06:33:09.687Z,991.95
2022-10-01T06:34:09.761Z,991.93
2022-10-01T06:35:09.656Z,991.96
2022-10-01T06:36:09.634Z,991.95
2022-10-01T06:37:09.625Z,991.88
2022-10-01T06:38:09.616Z,991.76
2022-10-01T06:39:09.615Z,991.79
2022-10-01T06:40:09.575Z,991.81
2022-10-01T06:41:09.572Z,991.76
2022-10-01T06:42:09.555Z,991.65
2022-10-01T06:43:09.558Z,991.67
2022-10-01T06:44:09.544Z,991.71
2022-10-01T06:45:09.514Z,991.78
2022-10-01T06:46:09.555Z,991.82
2022-10-01T06:47:09.491Z,991.84
2022-10-01T06:48:09.475Z,991.86
2022-10-01T06:49:09.474Z,991.87
2022-10-01T06:50:09.444Z,991.80
2022-10-01T06:51:09.437Z,991.83
2022-10-01T06:52:09.423Z,991.85
2022-10-01T06:53:09.405Z,991.86
2022-10-01T06:54:09.404Z,991.90
2022-10-01T06:55:13.092Z,991.90
2022-10-01T06:56:10.428Z,991.82
2022-10-01T06:57:09.446Z,991.73
2022-10-01T06:58:09.408Z,991.61
2022-10-01T06:59:09.325Z,991.61
2022-10-01T07:00:09.306Z,991.63
2022-10-01T07:01:09.385Z,991.58
2022-10-01T07:02:09.356Z,991.58
2022-10-01T07:03:09.280Z,991.60
2022-10-01T07:04:09.282Z,991.63
2022-10-01T07:05:09.262Z,991.67
2022-10-01T07:06:09.226Z,991.74
2022-10-01T07:07:09.230Z,991.81
2022-10-01T07:08:09.310Z,991.78
2022-10-01T07:09:10.205Z,991.74
2022-10-01T07:10:09.174Z,991.75
2022-10-01T07:11:09.173Z,991.72
2022-10-01T07:12:09.156Z,991.65
2022-10-01T07:13:09.159Z,991.61
2022-10-01T07:14:09.123Z,991.56
2022-10-01T07:15:09.105Z,991.54
2022-10-01T07:16:09.196Z,991.56
2022-10-01T07:17:09.076Z,991.57
2022-10-01T07:18:09.097Z,991.58
2022-10-01T07:19:09.054Z,991.57
2022-10-01T07:20:09.046Z,991.60
2022-10-01T07:21:09.047Z,991.67
2022-10-01T07:22:09.023Z,991.73
2022-10-01T07:23:09.027Z,991.70
2022-10-01T07:24:08.986Z,991.72
2022-10-01T07:25:08.973Z,991.66
2022-10-01T07:26:08.966Z,991.66
2022-10-01T07:27:08.946Z,991.62
2022-10-01T07:28:08.974Z,991.65
2022-10-01T07:29:08.924Z,991.60
2022-10-01T07:30:08.906Z,991.61
2022-10-01T07:31:08.895Z,991.57
2022-10-01T07:32:08.999Z,991.58
2022-10-01T07:33:08.876Z,991.58
2022-10-01T07:34:08.855Z,991.54
2022-10-01T07:35:08.836Z,991.54
2022-10-01T07:36:08.827Z,991.50
2022-10-01T07:37:08.822Z,991.46
2022-10-01T07:38:08.836Z,991.43
2022-10-01T07:39:08.796Z,991.46
2022-10-01T07:40:08.866Z,991.47
2022-10-01T07:41:08.766Z,991.46
2022-10-01T07:42:08.745Z,991.49
2022-10-01T07:43:08.725Z,991.53
2022-10-01T07:44:08.747Z,991.54
2022-10-01T07:45:08.746Z,991.54
2022-10-01T07:46:08.776Z,991.56
2022-10-01T07:47:13.792Z,991.55
2022-10-01T07:48:08.669Z,991.59
2022-10-01T07:49:08.669Z,991.59
2022-10-01T07:50:08.716Z,991.58
2022-10-01T07:51:09.320Z,991.60
2022-10-01T07:52:12.975Z,991.58
2022-10-01T07:53:08.601Z,991.59
2022-10-01T07:54:08.602Z,991.59
2022-10-01T07:55:08.565Z,991.62
2022-10-01T07:56:08.651Z,991.57
2022-10-01T07:57:08.534Z,991.56
2022-10-01T07:58:08.521Z,991.56
2022-10-01T07:59:08.535Z,991.53
2022-10-01T08:00:08.498Z,991.54
2022-10-01T08:01:08.525Z,991.52
2022-10-01T08:02:08.485Z,991.59
2022-10-01T08:03:08.456Z,991.57
2022-10-01T08:04:08.881Z,991.59
2022-10-01T08:05:08.466Z,991.60
2022-10-01T08:06:08.536Z,991.59
2022-10-01T08:07:08.892Z,991.62
2022-10-01T08:08:08.396Z,991.63
2022-10-01T08:09:08.399Z,991.67
2022-10-01T08:10:08.446Z,991.67
2022-10-01T08:11:08.440Z,991.73
2022-10-01T08:12:08.382Z,991.76
2022-10-01T08:13:08.337Z,991.72
2022-10-01T08:14:08.386Z,991.73
2022-10-01T08:15:08.536Z,991.77
2022-10-01T08:16:08.530Z,991.77
2022-10-01T08:17:08.510Z,991.81
2022-10-01T08:18:08.406Z,991.80
2022-10-01T08:19:09.275Z,991.74
2022-10-01T08:20:08.312Z,991.71
2022-10-01T08:21:08.295Z,991.70
2022-10-01T08:22:08.227Z,991.70
2022-10-01T08:23:08.185Z,991.71
2022-10-01T08:24:08.256Z,991.72
2022-10-01T08:25:08.219Z,991.72
2022-10-01T08:26:08.326Z,991.70
2022-10-01T08:27:08.129Z,991.79
2022-10-01T08:28:08.244Z,991.79
2022-10-01T08:29:08.144Z,991.81
2022-10-01T08:30:08.126Z,991.85
2022-10-01T08:31:08.149Z,991.81
2022-10-01T08:32:08.150Z,991.86
2022-10-01T08:33:08.054Z,991.79
2022-10-01T08:34:08.055Z,991.80
2022-10-01T08:35:08.035Z,991.81
2022-10-01T08:36:08.064Z,991.78
2022-10-01T08:37:08.027Z,991.73
2022-10-01T08:38:08.096Z,991.77
2022-10-01T08:39:07.987Z,991.74
2022-10-01T08:40:08.011Z,991.74
2022-10-01T08:41:07.940Z,991.68
2022-10-01T08:42:07.937Z,991.72
2022-10-01T08:43:07.927Z,991.72
2022-10-01T08:44:07.932Z,991.75
2022-10-01T08:45:07.889Z,991.82
2022-10-01T08:46:07.958Z,991.85
2022-10-01T08:47:07.873Z,991.80
2022-10-01T08:48:07.925Z,991.84
2022-10-01T08:49:07.868Z,991.86
2022-10-01T08:50:07.828Z,991.89
2022-10-01T08:51:07.864Z,991.88
2022-10-01T08:52:07.799Z,991.89
2022-10-01T08:53:07.786Z,991.90
2022-10-01T08:54:07.805Z,991.89
2022-10-01T08:55:07.760Z,991.95
2022-10-01T08:56:07.756Z,991.93
2022-10-01T08:57:07.767Z,991.91
2022-10-01T08:58:07.726Z,991.90
2022-10-01T08:59:07.735Z,991.95
2022-10-01T09:00:07.709Z,991.98
2022-10-01T09:01:07.819Z,991.98
2022-10-01T09:02:07.669Z,991.95
2022-10-01T09:03:07.648Z,991.93
2022-10-01T09:04:07.725Z,991.91
2022-10-01T09:05:07.629Z,991.87
2022-10-01T09:06:07.624Z,991.89
2022-10-01T09:07:07.599Z,991.92
2022-10-01T09:08:07.588Z,991.86
2022-10-01T09:09:07.589Z,991.85
2022-10-01T09:10:07.566Z,991.86
2022-10-01T09:11:07.566Z,991.87
2022-10-01T09:12:07.537Z,991.93
2022-10-01T09:13:07.518Z,991.91
2022-10-01T09:14:07.526Z,991.95
2022-10-01T09:15:07.507Z,991.99
2022-10-01T09:16:07.523Z,992.00
2022-10-01T09:17:07.469Z,991.96
2022-10-01T09:18:07.458Z,991.98
2022-10-01T09:19:07.439Z,992.01
2022-10-01T09:20:07.445Z,991.96
2022-10-01T09:21:07.417Z,991.90
2022-10-01T09:22:07.398Z,991.90
2022-10-01T09:23:07.386Z,991.91
2022-10-01T09:24:07.398Z,991.87
2022-10-01T09:25:07.399Z,991.84
2022-10-01T09:26:07.354Z,991.86
2022-10-01T09:27:07.335Z,991.88
2022-10-01T09:28:07.374Z,991.91
2022-10-01T09:29:07.318Z,991.93
2022-10-01T09:30:07.300Z,991.84
2022-10-01T09:31:07.314Z,991.78
2022-10-01T09:32:07.389Z,991.82
2022-10-01T09:33:07.276Z,991.81
2022-10-01T09:34:07.268Z,991.81
2022-10-01T09:35:07.299Z,991.80
2022-10-01T09:36:07.217Z,991.79
2022-10-01T09:37:07.202Z,991.85
2022-10-01T09:38:07.189Z,991.82
2022-10-01T09:39:07.177Z,991.82
2022-10-01T09:40:07.179Z,991.85
2022-10-01T09:41:07.200Z,991.87
2022-10-01T09:42:07.141Z,991.80
2022-10-01T09:43:07.120Z,991.87
2022-10-01T09:44:07.119Z,991.82
2022-10-01T09:45:07.109Z,991.81
2022-10-01T09:46:07.242Z,991.84
2022-10-01T09:47:07.110Z,991.82
2022-10-01T09:48:07.060Z,991.76
2022-10-01T09:49:07.059Z,991.76
2022-10-01T09:50:07.037Z,991.74
2022-10-01T09:51:07.020Z,991.72
2022-10-01T09:52:07.021Z,991.74
2022-10-01T09:53:07.010Z,991.82
2022-10-01T09:54:07.000Z,991.81
2022-10-01T09:55:06.972Z,991.81
2022-10-01T09:56:07.059Z,991.79
2022-10-01T09:57:06.940Z,991.78
2022-10-01T09:58:06.930Z,991.84
2022-10-01T09:59:06.930Z,991.84
2022-10-01T10:00:06.913Z,991.83
2022-10-01T10:01:06.890Z,991.79
2022-10-01T10:02:06.955Z,991.82
2022-10-01T10:03:07.037Z,991.79
2022-10-01T10:04:06.945Z,991.77
2022-10-01T10:05:06.869Z,991.79
2022-10-01T10:06:06.843Z,991.85
2022-10-01T10:07:06.809Z,991.81
2022-10-01T10:08:06.824Z,991.83
2022-10-01T10:09:06.779Z,991.79
2022-10-01T10:10:06.790Z,991.82
2022-10-01T10:11:06.751Z,991.84
2022-10-01T10:12:06.753Z,991.84
2022-10-01T10:13:06.728Z,991.82
2022-10-01T10:14:06.731Z,991.86
2022-10-01T10:15:06.713Z,991.90
2022-10-01T10:16:06.728Z,991.90
2022-10-01T10:17:06.671Z,991.99
2022-10-01T10:18:06.682Z,991.96
2022-10-01T10:19:06.956Z,991.97
2022-10-01T10:20:06.652Z,992.03
2022-10-01T10:21:06.621Z,992.03
2022-10-01T10:22:06.611Z,992.03
2022-10-01T10:23:06.592Z,992.03
2022-10-01T10:24:06.631Z,992.09
2022-10-01T10:25:06.582Z,992.11
2022-10-01T10:26:06.561Z,992.16
2022-10-01T10:27:06.550Z,992.11
2022-10-01T10:28:06.583Z,992.10
2022-10-01T10:29:06.513Z,992.13
2022-10-01T10:30:06.522Z,992.08
2022-10-01T10:31:06.521Z,992.14
2022-10-01T10:32:06.483Z,992.09
2022-10-01T10:33:06.463Z,992.13
2022-10-01T10:34:06.459Z,992.17
2022-10-01T10:35:06.452Z,992.11
2022-10-01T10:36:06.433Z,992.11
2022-10-01T10:37:06.443Z,992.15
2022-10-01T10:38:06.417Z,992.16
2022-10-01T10:39:06.417Z,992.17
2022-10-01T10:40:06.401Z,992.19
2022-10-01T10:41:06.360Z,992.08
2022-10-01T10:42:06.343Z,992.09
2022-10-01T10:43:06.333Z,992.08
2022-10-01T10:44:06.322Z,992.08
2022-10-01T10:45:06.328Z,992.08
2022-10-01T10:46:06.306Z,992.07
2022-10-01T10:47:06.274Z,992.16
2022-10-01T10:48:06.281Z,992.15
2022-10-01T10:49:06.263Z,992.10
2022-10-01T10:50:06.253Z,992.09
2022-10-01T10:51:06.223Z,992.07
2022-10-01T10:52:06.227Z,992.10
2022-10-01T10:53:06.204Z,992.10
2022-10-01T10:54:06.193Z,992.14
2022-10-01T10:55:06.189Z,992.16
2022-10-01T10:56:06.164Z,992.17
2022-10-01T10:57:06.163Z,992.23
2022-10-01T10:58:06.143Z,992.23
2022-10-01T10:59:06.124Z,992.20
2022-10-01T11:00:06.124Z,992.26
2022-10-01T11:01:06.212Z,992.28
2022-10-01T11:02:06.275Z,992.27
2022-10-01T11:03:06.084Z,992.17
2022-10-01T11:04:06.065Z,992.21
2022-10-01T11:05:06.064Z,992.17
2022-10-01T11:06:06.032Z,992.18
2022-10-01T11:07:06.014Z,992.20
2022-10-01T11:08:06.004Z,992.22
2022-10-01T11:09:05.992Z,992.24
2022-10-01T11:10:05.994Z,992.22
2022-10-01T11:11:05.964Z,992.21
2022-10-01T11:12:05.959Z,992.22
2022-10-01T11:13:05.965Z,992.10
2022-10-01T11:14:05.936Z,992.19
2022-10-01T11:15:05.923Z,992.19
2022-10-01T11:16:05.955Z,992.13
2022-10-01T11:17:05.908Z,992.20
2022-10-01T11:18:05.879Z,992.15
2022-10-01T11:19:05.864Z,992.20
2022-10-01T11:20:05.866Z,992.24
2022-10-01T11:21:05.850Z,992.28
2022-10-01T11:22:05.823Z,992.28
2022-10-01T11:23:05.796Z,992.30
2022-10-01T11:24:05.801Z,992.32
2022-10-01T11:25:05.789Z,992.30
2022-10-01T11:26:05.767Z,992.31
2022-10-01T11:27:05.755Z,992.27
2022-10-01T11:28:06.036Z,992.32
2022-10-01T11:29:05.847Z,992.27
2022-10-01T11:30:05.726Z,992.28
2022-10-01T11:31:05.808Z,992.31
2022-10-01T11:32:05.683Z,992.30
2022-10-01T11:33:05.710Z,992.31
2022-10-01T11:34:05.676Z,992.25
2022-10-01T11:35:05.666Z,992.21
2022-10-01T11:36:05.665Z,992.22
2022-10-01T11:37:05.626Z,992.20
2022-10-01T11:38:05.646Z,992.23
2022-10-01T11:39:05.597Z,992.26
2022-10-01T11:40:05.596Z,992.23
2022-10-01T11:41:05.567Z,992.21
2022-10-01T11:42:05.555Z,992.22
2022-10-01T11:43:05.537Z,992.20
2022-10-01T11:44:05.527Z,992.17
2022-10-01T11:45:05.537Z,992.19
2022-10-01T11:46:05.661Z,992.17
2022-10-01T11:47:05.478Z,992.18
2022-10-01T11:48:05.467Z,992.17
2022-10-01T11:49:05.457Z,992.17
2022-10-01T11:50:05.457Z,992.14
2022-10-01T11:51:05.440Z,992.10
2022-10-01T11:52:05.419Z,992.12
2022-10-01T11:53:05.410Z,992.16
2022-10-01T11:54:05.388Z,992.11
2022-10-01T11:55:05.392Z,992.14
2022-10-01T11:56:05.366Z,992.12
2022-10-01T11:57:05.356Z,992.17
2022-10-01T11:58:05.337Z,992.13
2022-10-01T11:59:05.326Z,992.13
2022-10-01T12:00:05.335Z,992.11
2022-10-01T12:01:05.299Z,992.09
2022-10-01T12:02:05.298Z,992.08
2022-10-01T12:03:05.281Z,992.11
2022-10-01T12:04:05.275Z,992.04
2022-10-01T12:05:05.289Z,992.08
2022-10-01T12:06:05.279Z,992.03
2022-10-01T12:07:05.258Z,992.01
2022-10-01T12:08:05.276Z,992.02
2022-10-01T12:09:05.259Z,992.01
2022-10-01T12:10:05.238Z,992.03
2022-10-01T12:11:05.216Z,991.99
2022-10-01T12:12:05.157Z,992.02
2022-10-01T12:13:05.138Z,992.02
2022-10-01T12:14:05.121Z,992.03
2022-10-01T12:15:07.006Z,991.99
2022-10-01T12:16:05.144Z,992.00
2022-10-01T12:17:05.100Z,991.95
2022-10-01T12:18:05.070Z,992.03
2022-10-01T12:19:05.060Z,992.06
2022-10-01T12:20:05.070Z,992.02
2022-10-01T12:21:05.030Z,991.93
2022-10-01T12:22:05.009Z,991.96
2022-10-01T12:23:05.000Z,992.05
2022-10-01T12:24:04.979Z,992.08
2022-10-01T12:25:04.987Z,992.04
2022-10-01T12:26:05.322Z,992.13
2022-10-01T12:27:04.970Z,992.16
2022-10-01T12:28:05.031Z,992.09